createdAt,value
2022-11-26T00:00:56.507Z,978.15
2022-11-26T00:01:56.773Z,978.17
2022-11-26T00:02:56.961Z,978.17
2022-11-26T00:03:57.073Z,978.18
2022-11-26T00:04:57.314Z,978.18
2022-11-26T00:05:58.841Z,978.17
2022-11-26T00:06:57.772Z,978.17
2022-11-26T00:07:57.873Z,978.19
2022-11-26T00:08:58.102Z,978.17
2022-11-26T00:09:58.316Z,978.17
2022-11-26T00:10:58.561Z,978.19
2022-11-26T00:11:58.662Z,978.18
2022-11-26T00:12:58.889Z,978.15
2022-11-26T00:13:59.094Z,978.20
2022-11-26T00:14:59.331Z,978.19
2022-11-26T00:15:59.548Z,978.24
2022-11-26T00:16:59.813Z,978.24
2022-11-26T00:17:59.901Z,978.23
2022-11-26T00:19:00.136Z,978.24
2022-11-26T00:20:00.379Z,978.26
2022-11-26T00:21:00.979Z,978.27
2022-11-26T00:22:00.745Z,978.24
2022-11-26T00:23:00.986Z,978.21
2022-11-26T00:24:01.087Z,978.22
2022-11-26T00:25:01.317Z,978.25
2022-11-26T00:26:02.349Z,978.21
2022-11-26T00:27:01.757Z,978.26
2022-11-26T00:28:01.967Z,978.26
2022-11-26T00:29:02.215Z,978.26
2022-11-26T00:30:02.427Z,978.23
2022-11-26T00:31:03.469Z,978.23
2022-11-26T00:32:02.938Z,978.25
2022-11-26T00:33:03.029Z,978.28
2022-11-26T00:34:03.249Z,978.29
2022-11-26T00:35:03.488Z,978.31
2022-11-26T00:36:05.191Z,978.31
2022-11-26T00:37:03.750Z,978.30
2022-11-26T00:38:03.963Z,978.27
2022-11-26T00:39:04.191Z,978.31
2022-11-26T00:40:04.400Z,978.35
2022-11-26T00:41:04.632Z,978.34
2022-11-26T00:42:04.850Z,978.33
2022-11-26T00:43:05.083Z,978.31
2022-11-26T00:44:05.291Z,978.31
2022-11-26T00:45:05.523Z,978.32
2022-11-26T00:46:05.813Z,978.34
2022-11-26T00:47:05.953Z,978.34
2022-11-26T00:48:06.053Z,978.36
2022-11-26T00:49:06.291Z,978.38
2022-11-26T00:50:06.504Z,978.38
2022-11-26T00:51:06.762Z,978.39
2022-11-26T00:52:06.856Z,978.41
2022-11-26T00:53:07.085Z,978.42
2022-11-26T00:54:07.305Z,978.45
2022-11-26T00:55:07.544Z,978.41
2022-11-26T00:56:08.576Z,978.38
2022-11-26T00:57:07.985Z,978.40
2022-11-26T00:58:08.216Z,978.39
2022-11-26T00:59:08.428Z,978.38
2022-11-26T01:00:08.645Z,978.40
2022-11-26T01:01:09.689Z,978.36
2022-11-26T01:02:09.156Z,978.40
2022-11-26T01:03:09.321Z,978.35
2022-11-26T01:04:09.555Z,978.35
2022-11-26T01:05:09.749Z,978.37
2022-11-26T01:06:12.409Z,978.40
2022-11-26T01:07:10.251Z,978.40
2022-11-26T01:08:10.459Z,978.42
2022-11-26T01:09:10.671Z,978.43
2022-11-26T01:10:10.905Z,978.42
2022-11-26T01:11:11.118Z,978.47
2022-11-26T01:12:11.351Z,978.46
2022-11-26T01:13:11.583Z,978.48
2022-11-26T01:14:11.802Z,978.49
2022-11-26T01:15:12.020Z,978.48
2022-11-26T01:16:12.298Z,978.47
2022-11-26T01:17:12.392Z,978.48
2022-11-26T01:18:12.623Z,978.44
2022-11-26T01:19:13.183Z,978.45
2022-11-26T01:20:13.093Z,978.46
2022-11-26T01:21:13.303Z,978.49
2022-11-26T01:22:13.543Z,978.50
2022-11-26T01:23:13.762Z,978.50
2022-11-26T01:24:13.994Z,978.53
2022-11-26T01:25:14.233Z,978.58
2022-11-26T01:26:14.491Z,978.60
2022-11-26T01:27:14.682Z,978.60
2022-11-26T01:28:14.912Z,978.64
2022-11-26T01:29:15.125Z,978.65
2022-11-26T01:30:15.370Z,978.63
2022-11-26T01:31:15.620Z,978.67
2022-11-26T01:32:15.744Z,978.70
2022-11-26T01:33:15.966Z,978.72
2022-11-26T01:34:16.199Z,978.68
2022-11-26T01:35:16.297Z,978.68
2022-11-26T01:36:16.517Z,978.67
2022-11-26T01:37:16.728Z,978.68
2022-11-26T01:38:16.967Z,978.65
2022-11-26T01:39:17.180Z,978.68
2022-11-26T01:40:17.412Z,978.66
2022-11-26T01:41:17.612Z,978.69
2022-11-26T01:42:17.850Z,978.69
2022-11-26T01:43:18.060Z,978.62
2022-11-26T01:44:18.291Z,978.60
2022-11-26T01:45:18.520Z,978.55
2022-11-26T01:46:18.823Z,978.53
2022-11-26T01:47:18.941Z,978.54
2022-11-26T01:48:19.162Z,978.52
2022-11-26T01:49:19.380Z,978.51
2022-11-26T01:50:19.612Z,978.49
2022-11-26T01:51:19.823Z,978.49
2022-11-26T01:52:20.064Z,978.50
2022-11-26T01:53:20.282Z,978.53
2022-11-26T01:54:20.491Z,978.55
2022-11-26T01:55:20.703Z,978.57
2022-11-26T01:56:20.971Z,978.65
2022-11-26T01:57:21.143Z,978.65
2022-11-26T01:58:21.375Z,978.72
2022-11-26T01:59:21.478Z,978.70
2022-11-26T02:00:21.707Z,978.71
2022-11-26T02:01:21.965Z,978.75
2022-11-26T02:02:22.138Z,978.75
2022-11-26T02:03:22.239Z,978.74
2022-11-26T02:04:22.458Z,978.74
2022-11-26T02:05:22.666Z,978.72
2022-11-26T02:06:22.897Z,978.73
2022-11-26T02:07:23.341Z,978.74
2022-11-26T02:08:23.281Z,978.71
2022-11-26T02:09:23.380Z,978.76
2022-11-26T02:10:30.617Z,978.76
2022-11-26T02:11:23.825Z,978.76
2022-11-26T02:12:24.058Z,978.77
2022-11-26T02:13:24.269Z,978.79
2022-11-26T02:14:24.505Z,978.76
2022-11-26T02:15:24.721Z,978.74
2022-11-26T02:16:25.065Z,978.75
2022-11-26T02:17:25.182Z,978.74
2022-11-26T02:18:25.419Z,978.79
2022-11-26T02:19:25.629Z,978.78
2022-11-26T02:20:25.869Z,978.72
2022-11-26T02:21:26.083Z,978.74
2022-11-26T02:22:26.318Z,978.76
2022-11-26T02:23:26.530Z,978.72
2022-11-26T02:24:26.742Z,978.74
2022-11-26T02:25:26.951Z,978.72
2022-11-26T02:26:27.181Z,978.68
2022-11-26T02:27:27.400Z,978.71
2022-11-26T02:28:27.635Z,978.74
2022-11-26T02:29:27.843Z,978.77
2022-11-26T02:30:28.059Z,978.75
2022-11-26T02:31:28.338Z,978.74
2022-11-26T02:32:28.423Z,978.74
2022-11-26T02:33:28.636Z,978.71
2022-11-26T02:34:30.625Z,978.71
2022-11-26T02:35:30.063Z,978.76
2022-11-26T02:36:29.235Z,978.77
2022-11-26T02:37:29.455Z,978.77
2022-11-26T02:38:29.685Z,978.80
2022-11-26T02:39:29.896Z,978.81
2022-11-26T02:40:30.126Z,978.81
2022-11-26T02:41:30.345Z,978.85
2022-11-26T02:42:30.583Z,978.84
2022-11-26T02:43:30.794Z,978.86
2022-11-26T02:44:31.030Z,978.85
2022-11-26T02:45:31.279Z,978.86
2022-11-26T02:46:31.483Z,978.92
2022-11-26T02:47:31.689Z,978.94
2022-11-26T02:48:31.918Z,978.98
2022-11-26T02:49:32.136Z,978.96
2022-11-26T02:50:32.399Z,978.98
2022-11-26T02:51:34.996Z,979.00
2022-11-26T02:52:32.815Z,979.04
2022-11-26T02:53:33.029Z,979.05
2022-11-26T02:54:33.239Z,979.05
2022-11-26T02:55:33.465Z,978.96
2022-11-26T02:56:33.691Z,979.04
2022-11-26T02:57:33.901Z,979.04
2022-11-26T02:58:34.139Z,979.04
2022-11-26T02:59:34.251Z,979.07
2022-11-26T03:00:34.492Z,979.09
2022-11-26T03:01:34.761Z,979.05
2022-11-26T03:02:34.963Z,979.15
2022-11-26T03:03:35.237Z,979.16
2022-11-26T03:04:35.534Z,979.14
2022-11-26T03:05:35.571Z,979.16
2022-11-26T03:06:35.804Z,979.07
2022-11-26T03:07:36.048Z,979.04
2022-11-26T03:08:36.188Z,979.10
2022-11-26T03:09:36.384Z,979.04
2022-11-26T03:10:36.646Z,979.00
2022-11-26T03:11:36.880Z,979.07
2022-11-26T03:12:36.992Z,979.12
2022-11-26T03:13:37.196Z,979.11
2022-11-26T03:14:37.627Z,979.11
2022-11-26T03:15:37.516Z,979.13
2022-11-26T03:16:37.768Z,979.14
2022-11-26T03:17:37.986Z,979.10
2022-11-26T03:18:38.108Z,979.10
2022-11-26T03:19:38.326Z,979.07
2022-11-26T03:20:38.570Z,979.03
2022-11-26T03:21:38.667Z,979.05
2022-11-26T03:22:38.907Z,979.00
2022-11-26T03:23:39.118Z,978.99
2022-11-26T03:24:39.533Z,979.05
2022-11-26T03:25:39.547Z,979.06
2022-11-26T03:26:39.769Z,979.06
2022-11-26T03:27:39.988Z,979.09
2022-11-26T03:28:40.219Z,979.07
2022-11-26T03:29:40.320Z,979.04
2022-11-26T03:30:40.569Z,979.01
2022-11-26T03:31:40.745Z,979.02
2022-11-26T03:32:40.830Z,979.06
2022-11-26T03:33:41.030Z,979.06
2022-11-26T03:34:41.369Z,979.05
2022-11-26T03:35:41.452Z,978.99
2022-11-26T03:36:41.690Z,979.11
2022-11-26T03:37:41.903Z,979.10
2022-11-26T03:38:42.142Z,979.18
2022-11-26T03:39:42.353Z,979.09
2022-11-26T03:40:42.591Z,979.12
2022-11-26T03:41:42.804Z,979.15
2022-11-26T03:42:43.044Z,979.18
2022-11-26T03:43:43.282Z,979.19
2022-11-26T03:44:43.518Z,979.22
2022-11-26T03:45:43.833Z,979.23
2022-11-26T03:46:43.982Z,979.28
2022-11-26T03:47:44.185Z,979.32
2022-11-26T03:48:44.413Z,979.44
2022-11-26T03:49:44.628Z,979.47
2022-11-26T03:50:44.858Z,979.53
2022-11-26T03:51:45.066Z,979.55
2022-11-26T03:52:45.304Z,979.61
2022-11-26T03:53:45.497Z,979.57
2022-11-26T03:54:45.719Z,979.54
2022-11-26T03:55:45.927Z,979.55
2022-11-26T03:56:46.158Z,979.59
2022-11-26T03:57:46.376Z,979.64
2022-11-26T03:58:46.628Z,979.67
2022-11-26T03:59:46.837Z,979.68
2022-11-26T04:00:47.056Z,979.71
2022-11-26T04:01:47.296Z,979.73
2022-11-26T04:02:47.576Z,979.73
2022-11-26T04:03:47.693Z,979.73
2022-11-26T04:04:47.922Z,979.70
2022-11-26T04:05:48.131Z,979.65
2022-11-26T04:06:48.360Z,979.68
2022-11-26T04:07:48.649Z,979.70
2022-11-26T04:08:48.776Z,979.68
2022-11-26T04:09:48.983Z,979.66
2022-11-26T04:10:49.219Z,979.70
2022-11-26T04:11:49.433Z,979.70
2022-11-26T04:12:49.666Z,979.70
2022-11-26T04:13:49.873Z,979.70
2022-11-26T04:14:50.113Z,979.71
2022-11-26T04:15:50.324Z,979.70
2022-11-26T04:16:50.615Z,979.73
2022-11-26T04:17:50.691Z,979.76
2022-11-26T04:18:50.928Z,979.76
2022-11-26T04:19:51.125Z,979.76
2022-11-26T04:20:53.228Z,979.75
2022-11-26T04:21:51.525Z,979.75
2022-11-26T04:22:51.757Z,979.77
2022-11-26T04:23:51.979Z,979.83
2022-11-26T04:24:52.206Z,979.82
2022-11-26T04:25:52.407Z,979.79
2022-11-26T04:26:52.652Z,979.82
2022-11-26T04:27:52.859Z,979.77
2022-11-26T04:28:53.075Z,979.78
2022-11-26T04:29:53.287Z,979.78
2022-11-26T04:30:53.507Z,979.77
2022-11-26T04:31:53.757Z,979.82
2022-11-26T04:32:53.979Z,979.82
2022-11-26T04:33:54.079Z,979.82
2022-11-26T04:34:54.321Z,979.86
2022-11-26T04:35:54.410Z,979.88
2022-11-26T04:36:54.647Z,979.85
2022-11-26T04:37:54.851Z,979.87
2022-11-26T04:38:55.195Z,979.86
2022-11-26T04:39:55.264Z,979.90
2022-11-26T04:40:55.488Z,979.88
2022-11-26T04:41:55.693Z,979.85
2022-11-26T04:42:55.930Z,979.87
2022-11-26T04:43:56.133Z,979.92
2022-11-26T04:44:56.363Z,979.87
2022-11-26T04:45:56.724Z,979.87
2022-11-26T04:46:56.909Z,979.89
2022-11-26T04:47:56.969Z,979.84
2022-11-26T04:48:57.203Z,979.90
2022-11-26T04:49:57.394Z,979.87
2022-11-26T04:50:57.614Z,979.86
2022-11-26T04:51:57.814Z,979.86
2022-11-26T04:52:58.045Z,979.91
2022-11-26T04:54:01.724Z,979.90
2022-11-26T04:54:58.405Z,979.94
2022-11-26T04:55:58.606Z,979.94
2022-11-26T04:56:58.837Z,979.98
2022-11-26T04:57:59.098Z,979.96
2022-11-26T04:58:59.287Z,979.94
2022-11-26T04:59:59.395Z,979.95
2022-11-26T05:00:59.641Z,979.96
2022-11-26T05:01:59.877Z,979.95
2022-11-26T05:03:00.055Z,979.97
2022-11-26T05:04:00.167Z,979.98
2022-11-26T05:05:00.396Z,979.97
2022-11-26T05:06:00.609Z,980.01
2022-11-26T05:07:00.859Z,980.00
2022-11-26T05:08:00.973Z,980.00
2022-11-26T05:09:01.239Z,980.03
2022-11-26T05:10:01.405Z,980.01
2022-11-26T05:11:01.630Z,979.98
2022-11-26T05:12:01.842Z,980.04
2022-11-26T05:13:02.051Z,980.01
2022-11-26T05:14:02.283Z,980.09
2022-11-26T05:15:02.495Z,980.08
2022-11-26T05:16:02.710Z,980.05
2022-11-26T05:17:02.974Z,980.06
2022-11-26T05:18:03.086Z,980.12
2022-11-26T05:19:03.293Z,980.14
2022-11-26T05:20:03.533Z,980.19
2022-11-26T05:21:03.743Z,980.20
2022-11-26T05:22:03.962Z,980.20
2022-11-26T05:23:04.184Z,980.20
2022-11-26T05:24:04.408Z,980.24
2022-11-26T05:25:04.504Z,980.23
2022-11-26T05:26:04.736Z,980.24
2022-11-26T05:27:04.945Z,980.27
2022-11-26T05:28:05.187Z,980.23
2022-11-26T05:29:05.397Z,980.28
2022-11-26T05:30:05.627Z,980.29
2022-11-26T05:31:05.846Z,980.33
2022-11-26T05:32:06.143Z,980.33
2022-11-26T05:33:06.228Z,980.30
2022-11-26T05:34:06.458Z,980.30
2022-11-26T05:35:06.669Z,980.31
2022-11-26T05:36:06.907Z,980.36
2022-11-26T05:37:07.116Z,980.36
2022-11-26T05:38:07.348Z,980.36
2022-11-26T05:39:07.550Z,980.38
2022-11-26T05:40:07.811Z,980.37
2022-11-26T05:41:07.999Z,980.40
2022-11-26T05:42:09.590Z,980.42
2022-11-26T05:43:08.361Z,980.40
2022-11-26T05:44:08.591Z,980.38
2022-11-26T05:45:08.801Z,980.39
2022-11-26T05:46:09.103Z,980.44
2022-11-26T05:47:09.171Z,980.46
2022-11-26T05:48:09.411Z,980.48
2022-11-26T05:49:09.621Z,980.53
2022-11-26T05:50:09.851Z,980.50
2022-11-26T05:51:10.063Z,980.53
2022-11-26T05:52:10.282Z,980.57
2022-11-26T05:53:10.504Z,980.58
2022-11-26T05:54:10.732Z,980.59
2022-11-26T05:55:10.934Z,980.63
2022-11-26T05:56:11.154Z,980.61
2022-11-26T05:57:11.386Z,980.63
2022-11-26T05:58:11.623Z,980.64
2022-11-26T05:59:11.824Z,980.66
2022-11-26T06:00:12.062Z,980.72
2022-11-26T06:01:12.265Z,980.72
2022-11-26T06:02:12.614Z,980.71
2022-11-26T06:03:16.932Z,980.68
2022-11-26T06:04:13.946Z,980.71
2022-11-26T06:05:13.095Z,980.70
2022-11-26T06:06:13.326Z,980.72
2022-11-26T06:07:13.564Z,980.71
2022-11-26T06:08:13.936Z,980.76
2022-11-26T06:09:13.911Z,980.76
2022-11-26T06:10:14.152Z,980.79
2022-11-26T06:11:14.348Z,980.76
2022-11-26T06:12:14.568Z,980.76
2022-11-26T06:13:14.787Z,980.77
2022-11-26T06:14:15.015Z,980.78
2022-11-26T06:15:15.231Z,980.76
2022-11-26T06:16:15.533Z,980.76
2022-11-26T06:17:15.627Z,980.75
2022-11-26T06:18:15.861Z,980.77
2022-11-26T06:19:16.078Z,980.77
2022-11-26T06:20:16.310Z,980.80
2022-11-26T06:21:16.522Z,980.85
2022-11-26T06:22:16.743Z,980.82
2022-11-26T06:23:16.953Z,980.82
2022-11-26T06:24:17.199Z,980.84
2022-11-26T06:25:17.292Z,980.86
2022-11-26T06:26:17.524Z,980.87
2022-11-26T06:27:17.730Z,980.85
2022-11-26T06:28:17.964Z,980.88
2022-11-26T06:29:18.181Z,980.89
2022-11-26T06:30:18.394Z,980.88
2022-11-26T06:31:18.652Z,980.89
2022-11-26T06:32:18.765Z,980.90
2022-11-26T06:33:18.984Z,980.93
2022-11-26T06:34:19.223Z,980.93
2022-11-26T06:35:19.435Z,980.93
2022-11-26T06:36:19.664Z,980.96
2022-11-26T06:37:19.866Z,980.92
2022-11-26T06:38:20.105Z,980.95
2022-11-26T06:39:20.317Z,980.95
2022-11-26T06:40:20.547Z,980.99
2022-11-26T06:41:20.758Z,980.99
2022-11-26T06:42:20.965Z,981.02
2022-11-26T06:43:21.176Z,981.03
2022-11-26T06:44:21.416Z,981.07
2022-11-26T06:45:21.628Z,981.05
2022-11-26T06:46:21.910Z,981.09
2022-11-26T06:47:21.989Z,981.09
2022-11-26T06:48:22.218Z,981.08
2022-11-26T06:49:22.431Z,981.10
2022-11-26T06:50:22.667Z,981.11
2022-11-26T06:51:22.879Z,981.09
2022-11-26T06:52:23.111Z,981.11
2022-11-26T06:53:23.328Z,981.12
2022-11-26T06:54:23.560Z,981.12
2022-11-26T06:55:23.778Z,981.10
2022-11-26T06:56:24.000Z,981.15
2022-11-26T06:57:24.219Z,981.15
2022-11-26T06:58:24.453Z,981.18
2022-11-26T06:59:24.682Z,981.21
2022-11-26T07:00:24.924Z,981.20
2022-11-26T07:01:25.221Z,981.22
2022-11-26T07:02:25.418Z,981.25
2022-11-26T07:03:28.092Z,981.26
2022-11-26T07:04:26.693Z,981.27
2022-11-26T07:05:25.843Z,981.27
2022-11-26T07:06:26.080Z,981.27
2022-11-26T07:07:26.351Z,981.29
2022-11-26T07:08:26.504Z,981.29
2022-11-26T07:09:26.714Z,981.26
2022-11-26T07:10:26.953Z,981.25
2022-11-26T07:11:27.165Z,981.29
2022-11-26T07:12:27.395Z,981.29
2022-11-26T07:13:27.616Z,981.28
2022-11-26T07:14:27.845Z,981.25
2022-11-26T07:15:28.056Z,981.25
2022-11-26T07:16:28.403Z,981.25
2022-11-26T07:17:28.458Z,981.26
2022-11-26T07:18:28.576Z,981.24
2022-11-26T07:19:28.795Z,981.25
2022-11-26T07:20:29.064Z,981.28
2022-11-26T07:21:29.156Z,981.29
2022-11-26T07:22:29.398Z,981.33
2022-11-26T07:23:29.516Z,981.30
2022-11-26T07:24:29.780Z,981.35
2022-11-26T07:25:29.979Z,981.35
2022-11-26T07:26:30.230Z,981.37
2022-11-26T07:27:30.329Z,981.40
2022-11-26T07:28:30.556Z,981.43
2022-11-26T07:29:30.669Z,981.43
2022-11-26T07:30:30.892Z,981.45
2022-11-26T07:31:30.993Z,981.46
2022-11-26T07:32:31.137Z,981.45
2022-11-26T07:33:31.243Z,981.46
2022-11-26T07:34:31.493Z,981.49
2022-11-26T07:35:31.610Z,981.49
2022-11-26T07:36:31.853Z,981.49
2022-11-26T07:37:31.953Z,981.48
2022-11-26T07:38:32.205Z,981.48
2022-11-26T07:39:32.413Z,981.47
2022-11-26T07:40:32.661Z,981.50
2022-11-26T07:41:32.771Z,981.49
2022-11-26T07:42:33.014Z,981.47
2022-11-26T07:43:33.125Z,981.47
2022-11-26T07:44:33.375Z,981.46
2022-11-26T07:45:33.576Z,981.50
2022-11-26T07:46:33.874Z,981.49
2022-11-26T07:47:33.975Z,981.50
2022-11-26T07:48:34.227Z,981.56
2022-11-26T07:49:34.456Z,981.58
2022-11-26T07:50:34.704Z,981.61
2022-11-26T07:51:34.807Z,981.58
2022-11-26T07:52:35.048Z,981.60
2022-11-26T07:53:35.148Z,981.59
2022-11-26T07:54:35.498Z,981.58
2022-11-26T07:55:35.558Z,981.56
2022-11-26T07:56:35.808Z,981.58
2022-11-26T07:57:35.920Z,981.61
2022-11-26T07:58:36.177Z,981.59
2022-11-26T07:59:36.379Z,981.59
2022-11-26T08:00:36.630Z,981.61
2022-11-26T08:01:36.953Z,981.60
2022-11-26T08:02:37.150Z,981.61
2022-11-26T08:03:37.235Z,981.59
2022-11-26T08:04:37.734Z,981.62
2022-11-26T08:05:37.701Z,981.64
2022-11-26T08:06:37.948Z,981.64
2022-11-26T08:07:38.223Z,981.63
2022-11-26T08:08:38.350Z,981.68
2022-11-26T08:09:38.463Z,981.71
2022-11-26T08:10:38.713Z,981.71
2022-11-26T08:11:38.941Z,981.71
2022-11-26T08:12:39.183Z,981.74
2022-11-26T08:13:39.413Z,981.71
2022-11-26T08:14:39.853Z,981.72
2022-11-26T08:15:39.774Z,981.71
2022-11-26T08:16:40.095Z,981.72
2022-11-26T08:17:40.205Z,981.71
2022-11-26T08:18:40.439Z,981.70
2022-11-26T08:19:40.555Z,981.74
2022-11-26T08:20:40.855Z,981.72
2022-11-26T08:21:41.048Z,981.72
2022-11-26T08:22:41.296Z,981.80
2022-11-26T08:23:41.417Z,981.79
2022-11-26T08:24:41.696Z,981.78
2022-11-26T08:26:06.193Z,981.78
2022-11-26T08:26:44.431Z,981.82
2022-11-26T08:27:42.239Z,981.84
2022-11-26T08:28:42.508Z,981.84
2022-11-26T08:29:42.698Z,981.84
2022-11-26T08:30:42.949Z,981.88
2022-11-26T08:31:46.102Z,981.91
2022-11-26T08:32:43.401Z,981.90
2022-11-26T08:33:43.509Z,981.90
2022-11-26T08:34:43.771Z,981.89
2022-11-26T08:36:05.420Z,981.87
2022-11-26T08:36:45.109Z,981.91
2022-11-26T08:37:44.273Z,981.90
2022-11-26T08:38:44.521Z,981.90
2022-11-26T08:39:44.630Z,981.88
2022-11-26T08:40:44.871Z,981.92
2022-11-26T08:41:50.286Z,981.89
2022-11-26T08:42:46.231Z,981.91
2022-11-26T08:44:05.623Z,981.90
2022-11-26T08:44:46.623Z,981.93
2022-11-26T08:45:45.859Z,981.92
2022-11-26T08:46:45.964Z,981.91
2022-11-26T08:47:46.182Z,981.88
2022-11-26T08:48:46.437Z,981.91
2022-11-26T08:49:46.544Z,981.88
2022-11-26T08:50:46.793Z,981.92
2022-11-26T08:51:46.916Z,981.90
2022-11-26T08:52:47.155Z,981.90
2022-11-26T08:53:47.408Z,981.90
2022-11-26T08:54:47.914Z,981.91
2022-11-26T08:56:00.036Z,981.90
2022-11-26T08:56:49.019Z,981.92
2022-11-26T08:57:48.177Z,981.97
2022-11-26T08:58:48.438Z,982.03
2022-11-26T08:59:48.547Z,982.00
2022-11-26T09:00:48.803Z,981.98
2022-11-26T09:01:48.950Z,982.06
2022-11-26T09:02:49.272Z,982.08
2022-11-26T09:03:49.400Z,982.12
2022-11-26T09:04:49.650Z,982.15
2022-11-26T09:05:49.880Z,982.15
2022-11-26T09:06:50.127Z,982.13
2022-11-26T09:07:50.396Z,982.13
2022-11-26T09:08:50.520Z,982.13
2022-11-26T09:09:50.658Z,982.16
2022-11-26T09:10:50.880Z,982.18
2022-11-26T09:11:51.105Z,982.19
2022-11-26T09:12:51.350Z,982.19
2022-11-26T09:13:51.473Z,982.20
2022-11-26T09:14:51.763Z,982.22
2022-11-26T09:15:51.841Z,982.19
2022-11-26T09:16:52.121Z,982.19
2022-11-26T09:17:52.193Z,982.22
2022-11-26T09:18:52.484Z,982.27
2022-11-26T09:19:52.552Z,982.27
2022-11-26T09:20:57.038Z,982.24
2022-11-26T09:21:53.009Z,982.27
2022-11-26T09:22:53.235Z,982.25
2022-11-26T09:23:53.464Z,982.26
2022-11-26T09:24:53.715Z,982.25
2022-11-26T09:25:53.835Z,982.27
2022-11-26T09:26:54.084Z,982.27
2022-11-26T09:27:54.194Z,982.31
2022-11-26T09:28:54.434Z,982.32
2022-11-26T09:29:54.666Z,982.33
2022-11-26T09:30:54.885Z,982.30
2022-11-26T09:32:22.549Z,982.35
2022-11-26T09:32:56.387Z,982.32
2022-11-26T09:33:55.588Z,982.32
2022-11-26T09:34:55.707Z,982.28
2022-11-26T09:35:55.939Z,982.25
2022-11-26T09:36:56.047Z,982.26
2022-11-26T09:37:56.308Z,982.25
2022-11-26T09:38:56.500Z,982.27
2022-11-26T09:39:56.752Z,982.26
2022-11-26T09:40:56.887Z,982.26
2022-11-26T09:41:57.149Z,982.34
2022-11-26T09:42:57.250Z,982.29
2022-11-26T09:43:57.520Z,982.30
2022-11-26T09:44:57.640Z,982.27
2022-11-26T09:45:57.941Z,982.31
2022-11-26T09:47:11.651Z,982.22
2022-11-26T09:47:59.258Z,982.31
2022-11-26T09:49:02.569Z,982.27
2022-11-26T09:49:59.664Z,982.28
2022-11-26T09:50:58.855Z,982.28
2022-11-26T09:51:59.107Z,982.27
2022-11-26T09:52:59.212Z,982.29
2022-11-26T09:53:59.470Z,982.28
2022-11-26T09:54:59.594Z,982.31
2022-11-26T09:55:59.855Z,982.28
2022-11-26T09:56:59.964Z,982.29
2022-11-26T09:58:00.224Z,982.29
2022-11-26T09:59:00.345Z,982.29
2022-11-26T10:00:00.585Z,982.32
2022-11-26T10:01:00.775Z,982.25
2022-11-26T10:02:00.945Z,982.28
2022-11-26T10:03:01.073Z,982.28
2022-11-26T10:04:01.284Z,982.26
2022-11-26T10:05:01.386Z,982.22
2022-11-26T10:06:01.627Z,982.24
2022-11-26T10:07:01.846Z,982.21
2022-11-26T10:08:02.141Z,982.20
2022-11-26T10:09:02.237Z,982.19
2022-11-26T10:10:02.468Z,982.19
2022-11-26T10:11:04.067Z,982.17
2022-11-26T10:12:02.860Z,982.22
2022-11-26T10:13:18.410Z,982.21
2022-11-26T10:14:04.319Z,982.18
2022-11-26T10:15:03.519Z,982.13
2022-11-26T10:16:03.724Z,982.19
2022-11-26T10:17:03.881Z,982.19
2022-11-26T10:18:04.019Z,982.15
2022-11-26T10:19:04.131Z,982.19
2022-11-26T10:20:04.383Z,982.19
2022-11-26T10:21:04.501Z,982.19
2022-11-26T10:22:04.731Z,982.19
2022-11-26T10:23:04.842Z,982.18
2022-11-26T10:24:05.123Z,982.20
2022-11-26T10:25:05.241Z,982.21
2022-11-26T10:26:05.369Z,982.21
2022-11-26T10:27:05.482Z,982.25
2022-11-26T10:28:05.724Z,982.25
2022-11-26T10:29:05.954Z,982.24
2022-11-26T10:30:06.203Z,982.24
2022-11-26T10:31:06.344Z,982.22
2022-11-26T10:32:06.474Z,982.25
2022-11-26T10:33:06.603Z,982.23
2022-11-26T10:34:06.865Z,982.22
2022-11-26T10:35:06.988Z,982.19
2022-11-26T10:36:07.247Z,982.24
2022-11-26T10:37:07.365Z,982.21
2022-11-26T10:38:07.626Z,982.22
2022-11-26T10:39:07.756Z,982.23
2022-11-26T10:40:07.998Z,982.20
2022-11-26T10:41:08.236Z,982.19
2022-11-26T10:42:08.365Z,982.18
2022-11-26T10:43:08.592Z,982.23
2022-11-26T10:44:08.728Z,982.24
2022-11-26T10:45:12.359Z,982.21
2022-11-26T10:46:09.060Z,982.22
2022-11-26T10:47:09.171Z,982.23
2022-11-26T10:48:09.418Z,982.26
2022-11-26T10:49:09.540Z,982.22
2022-11-26T10:50:31.841Z,982.19
2022-11-26T10:51:10.990Z,982.26
2022-11-26T10:52:10.180Z,982.27
2022-11-26T10:53:10.290Z,982.23
2022-11-26T10:54:10.531Z,982.26
2022-11-26T10:55:10.640Z,982.16
2022-11-26T10:56:10.891Z,982.22
2022-11-26T10:57:11.006Z,982.24
2022-11-26T10:58:11.250Z,982.13
2022-11-26T10:59:11.402Z,982.18
2022-11-26T11:00:11.602Z,982.18
2022-11-26T11:01:11.766Z,982.17
2022-11-26T11:02:11.913Z,982.20
2022-11-26T11:03:11.995Z,982.16
2022-11-26T11:04:12.244Z,982.21
2022-11-26T11:05:12.354Z,982.19
2022-11-26T11:06:12.602Z,982.20
2022-11-26T11:07:12.764Z,982.23
2022-11-26T11:08:12.864Z,982.18
2022-11-26T11:09:12.965Z,982.20
2022-11-26T11:10:13.216Z,982.20
2022-11-26T11:11:13.317Z,982.20
2022-11-26T11:12:13.569Z,982.23
2022-11-26T11:13:13.676Z,982.17
2022-11-26T11:14:13.984Z,982.19
2022-11-26T11:15:14.058Z,982.16
2022-11-26T11:16:14.332Z,982.19
2022-11-26T11:17:14.418Z,982.23
2022-11-26T11:18:14.667Z,982.18
2022-11-26T11:19:14.769Z,982.11
2022-11-26T11:20:15.020Z,982.12
2022-11-26T11:21:15.127Z,982.17
2022-11-26T11:22:15.369Z,982.22
2022-11-26T11:23:15.632Z,982.21
2022-11-26T11:24:15.862Z,982.19
2022-11-26T11:25:15.975Z,982.20
2022-11-26T11:26:16.221Z,982.21
2022-11-26T11:27:16.330Z,982.16
2022-11-26T11:28:16.580Z,982.19
2022-11-26T11:29:16.692Z,982.14
2022-11-26T11:30:16.965Z,982.17
2022-11-26T11:31:17.213Z,982.18
2022-11-26T11:32:17.340Z,982.20
2022-11-26T11:33:17.459Z,982.16
2022-11-26T11:34:17.705Z,982.17
2022-11-26T11:35:17.823Z,982.13
2022-11-26T11:36:18.065Z,982.16
2022-11-26T11:37:18.173Z,982.18
2022-11-26T11:38:18.417Z,982.17
2022-11-26T11:39:18.633Z,982.15
2022-11-26T11:40:18.858Z,982.09
2022-11-26T11:41:18.974Z,982.13
2022-11-26T11:42:19.225Z,982.14
2022-11-26T11:43:19.446Z,982.11
2022-11-26T11:44:19.696Z,982.12
2022-11-26T11:45:19.806Z,982.12
2022-11-26T11:46:20.078Z,982.12
2022-11-26T11:47:20.185Z,982.07
2022-11-26T11:48:20.434Z,982.10
2022-11-26T11:49:20.647Z,982.13
2022-11-26T11:50:20.915Z,982.09
2022-11-26T11:51:21.031Z,982.09
2022-11-26T11:52:21.278Z,982.07
2022-11-26T11:53:21.390Z,982.06
2022-11-26T11:54:21.639Z,982.08
2022-11-26T11:55:21.771Z,982.08
2022-11-26T11:56:22.010Z,982.08
2022-11-26T11:57:22.121Z,982.08
2022-11-26T11:58:22.368Z,982.07
2022-11-26T11:59:22.472Z,982.04
2022-11-26T12:00:22.710Z,982.03
2022-11-26T12:01:22.810Z,982.04
2022-11-26T12:02:23.170Z,982.05
2022-11-26T12:03:23.240Z,982.03
2022-11-26T12:04:23.564Z,982.01
2022-11-26T12:05:23.667Z,982.03
2022-11-26T12:06:23.920Z,982.05
2022-11-26T12:07:24.160Z,982.03
2022-11-26T12:08:24.394Z,982.01
2022-11-26T12:09:24.504Z,982.04
2022-11-26T12:10:24.752Z,982.01
2022-11-26T12:11:24.964Z,982.01
2022-11-26T12:12:25.204Z,982.00
2022-11-26T12:13:25.306Z,982.03
2022-11-26T12:14:25.575Z,982.01
2022-11-26T12:15:25.779Z,982.01
2022-11-26T12:16:26.072Z,982.00
2022-11-26T12:17:31.781Z,982.01
2022-11-26T12:18:27.423Z,982.02
2022-11-26T12:19:26.585Z,981.99
2022-11-26T12:20:26.843Z,982.00
2022-11-26T12:21:26.947Z,982.00
2022-11-26T12:22:27.187Z,982.00
2022-11-26T12:23:27.416Z,981.98
2022-11-26T12:24:27.678Z,981.98
2022-11-26T12:25:31.119Z,981.98
2022-11-26T12:26:29.009Z,982.00
2022-11-26T12:27:28.178Z,982.03
2022-11-26T12:28:28.419Z,982.05
2022-11-26T12:29:28.549Z,982.03
2022-11-26T12:30:28.798Z,982.05
2022-11-26T12:31:36.209Z,982.06